首页
METAR-TAF:

METAR-TAF

机场 :

托尔马切沃机场

新西伯利亚, 俄罗斯

纬度: 55-01N, 经度: 082-38E, 海拔: 111米

当前天气观测

该预报发布于23分钟前的17:30 UTC
风速6节,风向东南
温度 16°C
湿度 94%
气压 1004 hPa
能见度10公里或以上
散云层高于5000英尺, 积雨云.

METAR: UNNT 231730Z 14003MPS 9999 SCT050CB 16/15 Q1004 R25/290160 R16/290160 NOSIG RMK QFE743/0991

时间: 00:53 (17:53 UTC)

预报

该预报发布于53分钟前的17:00 UTC
预报有效从23日的 18点(UTC)到 24日的 18点(UTC)
风速6节,风向,有时为16节阵风
能见度10公里或以上
多云层高于3000英尺, 积雨云.
几率 40% :
短暂存在
从 23日的 18点(UTC)到 24日的 06点(UTC)
雷暴, 小雨
短暂存在
从 24日的 06点(UTC)到 24日的 18点(UTC)
雷暴, 小雨

TAF: UNNT 231700Z 2318/2418 19003G08MPS 9999 BKN030CB PROB40 TEMPO 2318/2406 -TSRA TEMPO 2406/2418 -TSRA

超过4000个机场的气象观测和天气预报(METAR&TAF报告)。

可查询的气象台以黄色和红色小点在地图上表示。

将鼠标移到小点上方,可查看气象台名称。

然后点击查看天气观测和预报。

如需切换地图:点击带黑十字的绿色按钮放大地图;点击带横线的绿色按钮缩小地图;或者点击绿色箭头查看邻近地区的地图。


METAR-TAF: